createdAt,value
2023-03-02T00:01:29.132Z,94942.31
2023-03-02T00:03:59.916Z,94938.09
2023-03-02T00:06:29.950Z,94941.47
2023-03-02T00:09:03.162Z,94938.81
2023-03-02T00:11:32.954Z,94945.28
2023-03-02T00:14:00.501Z,94944.50
2023-03-02T00:16:28.061Z,94941.09
2023-03-02T00:18:55.610Z,94940.34
2023-03-02T00:21:24.895Z,94934.34
2023-03-02T00:23:53.127Z,94934.34
2023-03-02T00:26:21.007Z,94932.00
2023-03-02T00:28:48.921Z,94935.50
2023-03-02T00:31:16.725Z,94935.06
2023-03-02T00:33:44.363Z,94940.66
2023-03-02T00:36:17.241Z,94940.38
2023-03-02T00:38:45.341Z,94939.25
2023-03-02T00:41:13.691Z,94939.66
2023-03-02T00:43:41.505Z,94935.72
2023-03-02T00:46:11.365Z,94934.53
2023-03-02T00:48:39.486Z,94930.44
2023-03-02T00:51:07.980Z,94939.31
2023-03-02T00:53:36.912Z,94938.16
2023-03-02T00:56:05.560Z,94935.53
2023-03-02T00:58:37.349Z,94938.09
2023-03-02T01:01:08.295Z,94933.66
2023-03-02T01:03:39.439Z,94924.09
2023-03-02T01:06:16.022Z,94931.81
2023-03-02T01:08:43.953Z,94924.78
2023-03-02T01:11:21.020Z,94926.47
2023-03-02T01:13:50.599Z,94922.97
2023-03-02T01:16:18.527Z,94919.16
2023-03-02T01:18:46.333Z,94921.44
2023-03-02T01:21:17.053Z,94924.50
2023-03-02T01:23:44.949Z,94917.28
2023-03-02T01:26:12.655Z,94928.59
2023-03-02T01:28:40.236Z,94918.88
2023-03-02T01:31:08.102Z,94921.53
2023-03-02T01:33:35.686Z,94906.66
2023-03-02T01:36:03.366Z,94928.63
2023-03-02T01:38:31.036Z,94930.06
2023-03-02T01:40:58.702Z,94919.69
2023-03-02T01:43:26.401Z,94931.06
2023-03-02T01:45:57.596Z,94921.31
2023-03-02T01:49:07.654Z,94929.03
2023-03-02T01:51:55.539Z,94914.03
2023-03-02T01:54:24.176Z,94937.56
2023-03-02T01:57:02.633Z,94948.44
2023-03-02T01:59:33.615Z,94946.38
2023-03-02T02:02:06.792Z,94938.50
2023-03-02T02:04:38.056Z,94933.59
2023-03-02T02:07:07.994Z,94931.88
2023-03-02T02:09:45.829Z,94935.63
2023-03-02T02:12:19.740Z,94929.84
2023-03-02T02:14:48.759Z,94935.84
2023-03-02T02:17:18.327Z,94934.69
2023-03-02T02:19:59.594Z,94938.00
2023-03-02T02:23:05.653Z,94944.56
2023-03-02T02:25:53.912Z,94944.81
2023-03-02T02:28:48.645Z,94948.94
2023-03-02T02:31:28.996Z,94950.78
2023-03-02T02:34:07.210Z,94955.25
2023-03-02T02:36:41.154Z,94957.50
2023-03-02T02:39:19.620Z,94961.59
2023-03-02T02:41:50.166Z,94949.94
2023-03-02T02:44:19.608Z,94956.13
2023-03-02T02:46:47.784Z,94957.66
2023-03-02T02:49:30.965Z,94965.34
2023-03-02T02:51:59.780Z,94960.34
2023-03-02T02:54:29.175Z,94959.53
2023-03-02T02:56:58.976Z,94961.72
2023-03-02T02:59:32.835Z,94952.19
2023-03-02T03:02:01.712Z,94967.72
2023-03-02T03:04:32.703Z,94969.75
2023-03-02T03:07:06.361Z,94972.81
2023-03-02T03:09:34.241Z,94975.03
2023-03-02T03:12:08.178Z,94962.81
2023-03-02T03:14:39.723Z,94966.91
2023-03-02T03:17:12.616Z,94975.22
2023-03-02T03:19:48.077Z,94971.03
2023-03-02T03:22:17.692Z,94978.63
2023-03-02T03:24:47.672Z,94974.50
2023-03-02T03:27:17.325Z,94971.75
2023-03-02T03:29:50.848Z,94981.03
2023-03-02T03:32:21.002Z,94976.66
2023-03-02T03:34:51.297Z,94988.00
2023-03-02T03:37:31.762Z,94973.69
2023-03-02T03:39:59.326Z,94993.09
2023-03-02T03:42:27.387Z,94979.56
2023-03-02T03:44:56.522Z,94987.03
2023-03-02T03:47:24.436Z,94989.97
2023-03-02T03:49:52.671Z,94991.34
2023-03-02T03:52:30.766Z,94996.06
2023-03-02T03:55:07.436Z,94995.94
2023-03-02T03:57:35.532Z,94999.97
2023-03-02T04:00:08.306Z,94991.78
2023-03-02T04:02:42.504Z,95003.00
2023-03-02T04:05:13.046Z,94999.38
2023-03-02T04:07:41.387Z,94999.84
2023-03-02T04:10:11.006Z,94993.84
2023-03-02T04:12:42.271Z,95004.94
2023-03-02T04:15:15.387Z,95002.38
2023-03-02T04:17:45.346Z,94998.97
2023-03-02T04:20:18.858Z,95004.31
2023-03-02T04:22:52.549Z,95003.91
2023-03-02T04:25:23.530Z,95007.72
2023-03-02T04:27:54.689Z,95008.81
2023-03-02T04:30:26.827Z,95012.59
2023-03-02T04:32:57.949Z,95014.81
2023-03-02T04:35:28.503Z,95001.78
2023-03-02T04:37:56.562Z,95007.44
2023-03-02T04:40:24.221Z,95014.25
2023-03-02T04:42:51.743Z,95027.09
2023-03-02T04:45:19.539Z,95027.34
2023-03-02T04:47:47.102Z,95024.84
2023-03-02T04:50:15.588Z,95033.78
2023-03-02T04:52:43.344Z,95022.16
2023-03-02T04:55:20.293Z,95031.06
2023-03-02T04:57:48.118Z,95041.88
2023-03-02T05:00:18.413Z,95041.25
2023-03-02T05:02:46.384Z,95038.41
2023-03-02T05:05:18.211Z,95041.28
2023-03-02T05:07:45.885Z,95042.91
2023-03-02T05:10:15.104Z,95052.63
2023-03-02T05:12:55.293Z,95044.00
2023-03-02T05:15:28.859Z,95045.00
2023-03-02T05:17:56.806Z,95044.03
2023-03-02T05:20:27.875Z,95057.25
2023-03-02T05:22:56.396Z,95050.81
2023-03-02T05:25:24.526Z,95055.00
2023-03-02T05:27:53.250Z,95054.16
2023-03-02T05:30:22.554Z,95051.50
2023-03-02T05:32:51.441Z,95044.53
2023-03-02T05:35:20.423Z,95044.84
2023-03-02T05:37:48.177Z,95062.38
2023-03-02T05:40:19.457Z,95060.63
2023-03-02T05:42:47.142Z,95037.38
2023-03-02T05:45:22.388Z,95060.03
2023-03-02T05:47:50.243Z,95066.38
2023-03-02T05:50:18.677Z,95061.66
2023-03-02T05:52:46.690Z,95070.59
2023-03-02T05:55:15.700Z,95073.94
2023-03-02T05:57:43.654Z,95065.88
2023-03-02T06:00:13.188Z,95066.25
2023-03-02T06:02:41.669Z,95058.53
2023-03-02T06:05:14.070Z,95072.41
2023-03-02T06:07:42.392Z,95062.84
2023-03-02T06:10:12.321Z,95071.28
2023-03-02T06:12:40.717Z,95061.47
2023-03-02T06:15:09.474Z,95064.66
2023-03-02T06:17:37.096Z,95072.53
2023-03-02T06:20:10.678Z,95084.88
2023-03-02T06:22:45.520Z,95077.69
2023-03-02T06:25:16.350Z,95079.69
2023-03-02T06:27:44.734Z,95077.31
2023-03-02T06:30:16.267Z,95091.53
2023-03-02T06:32:44.171Z,95085.94
2023-03-02T06:35:12.577Z,95083.25
2023-03-02T06:37:42.305Z,95101.63
2023-03-02T06:40:14.163Z,95105.50
2023-03-02T06:42:43.241Z,95099.03
2023-03-02T06:45:11.592Z,95108.59
2023-03-02T06:47:39.914Z,95102.97
2023-03-02T06:50:08.855Z,95123.22
2023-03-02T06:52:36.534Z,95115.66
2023-03-02T06:55:05.084Z,95129.03
2023-03-02T06:57:34.402Z,95118.78
2023-03-02T07:00:10.371Z,95121.75
2023-03-02T07:02:38.167Z,95122.50
2023-03-02T07:05:07.386Z,95129.38
2023-03-02T07:07:35.216Z,95131.34
2023-03-02T07:10:02.817Z,95135.91
2023-03-02T07:12:31.131Z,95131.81
2023-03-02T07:14:58.851Z,95131.38
2023-03-02T07:17:26.465Z,95141.00
2023-03-02T07:19:54.817Z,95142.09
2023-03-02T07:22:22.533Z,95149.69
2023-03-02T07:24:50.165Z,95147.38
2023-03-02T07:27:17.892Z,95158.00
2023-03-02T07:29:45.515Z,95156.47
2023-03-02T07:32:13.310Z,95160.66
2023-03-02T07:34:40.908Z,95171.34
2023-03-02T07:37:08.670Z,95169.81
2023-03-02T07:39:36.236Z,95171.25
2023-03-02T07:42:04.760Z,95169.56
2023-03-02T07:44:33.126Z,95173.53
2023-03-02T07:47:01.153Z,95174.44
2023-03-02T07:49:29.275Z,95169.25
2023-03-02T07:51:57.252Z,95169.03
2023-03-02T07:54:26.849Z,95178.69
2023-03-02T07:56:54.358Z,95177.72
2023-03-02T07:59:21.846Z,95180.41
2023-03-02T08:01:49.680Z,95171.84
2023-03-02T08:04:17.380Z,95176.47
2023-03-02T08:06:45.172Z,95178.53
2023-03-02T08:09:14.615Z,95176.97
2023-03-02T08:11:45.243Z,95168.94
2023-03-02T08:14:12.931Z,95176.91
2023-03-02T08:16:41.322Z,95187.72
2023-03-02T08:19:09.132Z,95195.06
2023-03-02T08:21:37.066Z,95171.66
2023-03-02T08:24:04.625Z,95177.09
2023-03-02T08:26:32.701Z,95182.88
2023-03-02T08:29:00.525Z,95190.25
2023-03-02T08:31:28.278Z,95176.88
2023-03-02T08:33:56.166Z,95196.72
2023-03-02T08:36:23.773Z,95198.97
2023-03-02T08:38:51.356Z,95196.84
2023-03-02T08:41:21.400Z,95195.84
2023-03-02T08:43:49.097Z,95194.09
2023-03-02T08:46:19.000Z,95187.53
2023-03-02T08:48:47.840Z,95203.94
2023-03-02T08:51:18.632Z,95194.09
2023-03-02T08:53:48.241Z,95197.63
2023-03-02T08:56:27.802Z,95192.38
2023-03-02T08:58:58.961Z,95190.31
2023-03-02T09:01:32.755Z,95204.50
2023-03-02T09:04:01.414Z,95191.03
2023-03-02T09:06:31.020Z,95197.72
2023-03-02T09:08:58.603Z,95208.19
2023-03-02T09:11:26.483Z,95206.91
2023-03-02T09:13:55.208Z,95209.44
2023-03-02T09:16:26.220Z,95205.97
2023-03-02T09:18:54.833Z,95211.53
2023-03-02T09:21:22.911Z,95215.50
2023-03-02T09:23:54.058Z,95209.59
2023-03-02T09:26:21.988Z,95210.16
2023-03-02T09:28:49.729Z,95209.69
2023-03-02T09:31:17.594Z,95222.13
2023-03-02T09:33:45.600Z,95216.44
2023-03-02T09:36:19.960Z,95232.19
2023-03-02T09:38:48.560Z,95240.03
2023-03-02T09:41:35.940Z,95226.28
2023-03-02T09:44:21.072Z,95242.88
2023-03-02T09:46:54.584Z,95237.31
2023-03-02T09:49:59.126Z,95247.50
2023-03-02T09:52:48.674Z,95240.13
2023-03-02T09:55:24.074Z,95255.47
2023-03-02T09:57:51.954Z,95257.00
2023-03-02T10:00:30.791Z,95244.78
2023-03-02T10:03:16.724Z,95250.19
2023-03-02T10:05:48.053Z,95252.97
2023-03-02T10:08:19.147Z,95250.72
2023-03-02T10:10:52.693Z,95261.75
2023-03-02T10:13:31.439Z,95245.34
2023-03-02T10:15:59.055Z,95257.97
2023-03-02T10:18:44.231Z,95261.00
2023-03-02T10:21:22.595Z,95259.50
2023-03-02T10:24:14.223Z,95258.75
2023-03-02T10:26:55.710Z,95268.28
2023-03-02T10:29:50.330Z,95261.41
2023-03-02T10:32:18.042Z,95274.38
2023-03-02T10:34:45.698Z,95267.13
2023-03-02T10:37:18.029Z,95270.19
2023-03-02T10:39:45.966Z,95264.81
2023-03-02T10:42:21.863Z,95269.72
2023-03-02T10:44:55.520Z,95280.03
2023-03-02T10:47:28.562Z,95294.91
2023-03-02T10:49:58.069Z,95279.63
2023-03-02T10:52:28.143Z,95291.84
2023-03-02T10:55:14.304Z,95298.34
2023-03-02T10:57:44.689Z,95304.00
2023-03-02T11:00:22.095Z,95281.41
2023-03-02T11:02:56.577Z,95296.59
2023-03-02T11:05:28.790Z,95297.59
2023-03-02T11:08:01.905Z,95280.22
2023-03-02T11:10:42.158Z,95294.38
2023-03-02T11:13:29.570Z,95295.56
2023-03-02T11:16:00.833Z,95303.34
2023-03-02T11:18:38.776Z,95302.31
2023-03-02T11:21:38.424Z,95307.25
2023-03-02T11:24:14.468Z,95313.31
2023-03-02T11:26:52.607Z,95302.94
2023-03-02T11:29:37.082Z,95310.88
2023-03-02T11:32:10.617Z,95310.41
2023-03-02T11:34:49.932Z,95314.22
2023-03-02T11:37:20.557Z,95310.34
2023-03-02T11:39:55.062Z,95318.84
2023-03-02T11:42:31.433Z,95321.75
2023-03-02T11:45:04.511Z,95327.56
2023-03-02T11:47:34.201Z,95331.97
2023-03-02T11:50:07.935Z,95326.22
2023-03-02T11:52:40.021Z,95340.75
2023-03-02T11:55:13.530Z,95343.84
2023-03-02T11:57:49.991Z,95341.44
2023-03-02T12:00:31.774Z,95342.81
2023-03-02T12:03:06.419Z,95331.22
2023-03-02T12:05:37.154Z,95343.41
2023-03-02T12:08:29.508Z,95354.69
2023-03-02T12:11:02.165Z,95349.34
2023-03-02T12:13:39.459Z,95344.69
2023-03-02T12:16:33.199Z,95340.50
2023-03-02T12:19:25.774Z,95351.22
2023-03-02T12:22:02.616Z,95355.72
2023-03-02T12:24:35.897Z,95357.94
2023-03-02T12:27:26.001Z,95341.84
2023-03-02T12:30:08.789Z,95349.78
2023-03-02T12:32:36.855Z,95357.13
2023-03-02T12:35:11.455Z,95360.16
2023-03-02T12:37:53.751Z,95364.44
2023-03-02T12:40:39.426Z,95373.50
2023-03-02T12:43:28.825Z,95371.69
2023-03-02T12:46:21.241Z,95379.94
2023-03-02T12:48:49.236Z,95373.00
2023-03-02T12:51:58.414Z,95368.44
2023-03-02T12:54:28.918Z,95373.81
2023-03-02T12:57:06.676Z,95373.59
2023-03-02T12:59:34.763Z,95375.34
2023-03-02T13:02:23.829Z,95369.75
2023-03-02T13:05:03.802Z,95376.25
2023-03-02T13:07:41.613Z,95376.97
2023-03-02T13:10:21.498Z,95381.13
2023-03-02T13:12:49.202Z,95386.28
2023-03-02T13:15:17.944Z,95382.16
2023-03-02T13:17:53.050Z,95383.00
2023-03-02T13:20:22.255Z,95397.72
2023-03-02T13:22:50.566Z,95389.59
2023-03-02T13:25:30.908Z,95388.78
2023-03-02T13:28:11.236Z,95385.97
2023-03-02T13:30:48.057Z,95396.38
2023-03-02T13:33:23.046Z,95404.69
2023-03-02T13:35:51.310Z,95401.81
2023-03-02T13:38:21.824Z,95402.97
2023-03-02T13:40:52.032Z,95393.56
2023-03-02T13:43:24.291Z,95405.06
2023-03-02T13:46:02.247Z,95413.06
2023-03-02T13:48:30.413Z,95408.91
2023-03-02T13:51:03.918Z,95414.53
2023-03-02T13:53:38.337Z,95409.00
2023-03-02T13:56:06.153Z,95417.50
2023-03-02T13:58:38.729Z,95416.06
2023-03-02T14:01:07.520Z,95419.19
2023-03-02T14:03:35.187Z,95414.78
2023-03-02T14:06:02.726Z,95419.69
2023-03-02T14:08:30.301Z,95429.47
2023-03-02T14:11:01.512Z,95422.09
2023-03-02T14:13:41.510Z,95427.25
2023-03-02T14:16:16.835Z,95439.88
2023-03-02T14:18:49.671Z,95442.09
2023-03-02T14:21:19.118Z,95430.19
2023-03-02T14:23:47.803Z,95436.06
2023-03-02T14:26:32.951Z,95434.38
2023-03-02T14:29:06.274Z,95424.53
2023-03-02T14:31:35.134Z,95445.03
2023-03-02T14:34:03.229Z,95419.97
2023-03-02T14:36:34.262Z,95450.31
2023-03-02T14:39:08.140Z,95445.47
2023-03-02T14:41:52.623Z,95446.56
2023-03-02T14:44:20.994Z,95451.00
2023-03-02T14:46:48.813Z,95448.38
2023-03-02T14:49:16.560Z,95459.66
2023-03-02T14:51:46.553Z,95457.69
2023-03-02T14:54:19.609Z,95458.91
2023-03-02T14:56:49.324Z,95455.22
2023-03-02T14:59:18.166Z,95458.50
2023-03-02T15:01:46.008Z,95459.03
2023-03-02T15:04:13.552Z,95460.16
2023-03-02T15:06:43.707Z,95462.88
2023-03-02T15:09:12.023Z,95466.91
2023-03-02T15:11:39.595Z,95453.50
2023-03-02T15:14:07.277Z,95449.38
2023-03-02T15:16:34.969Z,95459.72
2023-03-02T15:19:02.601Z,95466.13
2023-03-02T15:21:30.128Z,95456.22
2023-03-02T15:23:57.831Z,95453.56
2023-03-02T15:26:25.506Z,95463.31
2023-03-02T15:28:53.132Z,95465.78
2023-03-02T15:31:23.756Z,95461.16
2023-03-02T15:33:52.451Z,95458.78
2023-03-02T15:36:21.147Z,95445.94
2023-03-02T15:38:53.640Z,95456.06
2023-03-02T15:41:28.538Z,95452.81
2023-03-02T15:43:56.830Z,95444.06
2023-03-02T15:46:24.853Z,95459.41
2023-03-02T15:48:53.906Z,95451.22
2023-03-02T15:51:21.608Z,95456.84
2023-03-02T15:53:49.424Z,95453.16
2023-03-02T15:56:17.872Z,95449.47
2023-03-02T15:58:52.247Z,95462.19
2023-03-02T16:01:22.632Z,95456.31
2023-03-02T16:03:50.652Z,95456.66
2023-03-02T16:06:18.547Z,95458.19
2023-03-02T16:08:46.195Z,95464.19
2023-03-02T16:11:18.752Z,95467.94
2023-03-02T16:13:46.471Z,95467.84
2023-03-02T16:16:14.148Z,95457.63
2023-03-02T16:18:41.729Z,95460.19
2023-03-02T16:21:13.663Z,95458.09
2023-03-02T16:23:41.297Z,95450.03
2023-03-02T16:26:11.264Z,95454.75
2023-03-02T16:28:39.035Z,95448.91
2023-03-02T16:31:09.732Z,95462.66
2023-03-02T16:33:38.727Z,95466.75
2023-03-02T16:36:07.148Z,95467.44
2023-03-02T16:38:34.864Z,95456.28
2023-03-02T16:41:18.764Z,95460.50
2023-03-02T16:43:49.107Z,95455.56
2023-03-02T16:46:18.175Z,95448.72
2023-03-02T16:48:47.133Z,95452.06
2023-03-02T16:51:15.643Z,95468.78
2023-03-02T16:53:43.403Z,95466.91
2023-03-02T16:56:13.287Z,95464.59
2023-03-02T16:58:42.387Z,95462.50
2023-03-02T17:01:12.991Z,95458.72
2023-03-02T17:03:41.369Z,95459.31
2023-03-02T17:06:12.264Z,95458.34
2023-03-02T17:08:40.494Z,95453.25
2023-03-02T17:11:08.616Z,95455.72
2023-03-02T17:13:36.261Z,95463.16
2023-03-02T17:16:04.591Z,95455.88
2023-03-02T17:18:33.605Z,95464.19
2023-03-02T17:21:01.480Z,95461.66
2023-03-02T17:23:29.463Z,95455.44
2023-03-02T17:25:57.295Z,95450.22
2023-03-02T17:28:25.048Z,95443.44
2023-03-02T17:30:52.730Z,95447.03
2023-03-02T17:33:20.548Z,95437.97
2023-03-02T17:35:48.333Z,95440.09
2023-03-02T17:38:16.656Z,95440.28
2023-03-02T17:40:44.716Z,95448.72
2023-03-02T17:43:13.015Z,95440.72
2023-03-02T17:45:41.602Z,95432.94
2023-03-02T17:48:09.202Z,95433.19
2023-03-02T17:50:49.201Z,95432.00
2023-03-02T17:53:16.817Z,95436.00
2023-03-02T17:55:44.629Z,95428.34
2023-03-02T17:58:12.184Z,95433.78
2023-03-02T18:00:41.447Z,95443.59
2023-03-02T18:03:09.303Z,95434.13
2023-03-02T18:05:37.231Z,95436.44
2023-03-02T18:08:05.307Z,95439.34
2023-03-02T18:10:33.083Z,95428.19
2023-03-02T18:13:00.780Z,95432.94
2023-03-02T18:15:30.300Z,95431.69
2023-03-02T18:17:58.343Z,95440.13
2023-03-02T18:20:25.932Z,95445.25
2023-03-02T18:22:57.659Z,95450.69
2023-03-02T18:25:32.639Z,95446.00
2023-03-02T18:28:00.237Z,95448.31
2023-03-02T18:30:27.969Z,95440.56
2023-03-02T18:32:55.704Z,95443.81
2023-03-02T18:35:23.771Z,95446.78
2023-03-02T18:37:51.483Z,95447.13
2023-03-02T18:40:19.545Z,95438.16
2023-03-02T18:42:47.701Z,95438.06
2023-03-02T18:45:25.126Z,95439.97
2023-03-02T18:47:53.166Z,95436.88
2023-03-02T18:50:21.854Z,95436.22
2023-03-02T18:52:53.312Z,95431.25
2023-03-02T18:55:23.485Z,95438.50
2023-03-02T18:57:54.173Z,95435.69
2023-03-02T19:00:27.666Z,95437.66
2023-03-02T19:02:56.036Z,95443.28
2023-03-02T19:05:25.495Z,95441.84
2023-03-02T19:07:55.182Z,95439.50
2023-03-02T19:10:22.808Z,95425.63
2023-03-02T19:12:50.656Z,95433.41
2023-03-02T19:15:18.432Z,95425.97
2023-03-02T19:17:46.350Z,95430.06
2023-03-02T19:20:16.019Z,95430.91
2023-03-02T19:22:43.593Z,95429.28
2023-03-02T19:25:11.569Z,95421.00
2023-03-02T19:27:42.091Z,95433.91
2023-03-02T19:30:14.611Z,95422.91
2023-03-02T19:32:42.373Z,95439.25
2023-03-02T19:35:14.830Z,95455.59
2023-03-02T19:37:43.412Z,95445.25
2023-03-02T19:40:13.035Z,95433.28
2023-03-02T19:42:40.925Z,95446.72
2023-03-02T19:45:12.747Z,95440.03
2023-03-02T19:47:40.857Z,95445.84
2023-03-02T19:50:09.218Z,95441.66
2023-03-02T19:52:37.736Z,95444.75
2023-03-02T19:55:07.518Z,95444.28
2023-03-02T19:57:35.387Z,95449.28
2023-03-02T20:00:05.907Z,95449.09
2023-03-02T20:02:36.338Z,95448.31
2023-03-02T20:05:04.878Z,95457.09
2023-03-02T20:07:32.467Z,95459.75
2023-03-02T20:10:00.179Z,95440.06
2023-03-02T20:12:27.753Z,95456.09
2023-03-02T20:14:57.119Z,95459.41
2023-03-02T20:17:24.633Z,95461.22
2023-03-02T20:19:52.993Z,95467.09
2023-03-02T20:22:20.536Z,95471.00
2023-03-02T20:24:48.104Z,95465.31
2023-03-02T20:27:15.747Z,95463.78
2023-03-02T20:29:43.615Z,95470.50
2023-03-02T20:32:13.380Z,95466.75
2023-03-02T20:34:42.935Z,95462.06
2023-03-02T20:37:14.215Z,95469.97
2023-03-02T20:39:44.280Z,95478.50
2023-03-02T20:42:13.203Z,95480.72
2023-03-02T20:44:40.970Z,95477.75
2023-03-02T20:47:10.179Z,95487.31
2023-03-02T20:49:39.172Z,95487.13
2023-03-02T20:52:08.470Z,95489.78
2023-03-02T20:54:41.059Z,95493.34
2023-03-02T20:57:09.349Z,95486.75
2023-03-02T20:59:38.465Z,95496.41
2023-03-02T21:02:06.556Z,95492.22
2023-03-02T21:04:36.341Z,95499.03
2023-03-02T21:07:03.970Z,95504.31
2023-03-02T21:09:31.531Z,95502.38
2023-03-02T21:11:59.258Z,95500.69
2023-03-02T21:14:31.076Z,95513.66
2023-03-02T21:16:59.763Z,95519.09
2023-03-02T21:19:30.120Z,95518.75
2023-03-02T21:21:58.198Z,95519.63
2023-03-02T21:24:25.822Z,95514.56
2023-03-02T21:26:55.162Z,95532.81
2023-03-02T21:29:25.362Z,95527.94
2023-03-02T21:31:53.935Z,95533.22
2023-03-02T21:34:22.669Z,95536.34
2023-03-02T21:36:53.863Z,95529.97
2023-03-02T21:39:26.160Z,95534.00
2023-03-02T21:41:54.294Z,95529.03
2023-03-02T21:44:22.207Z,95532.53
2023-03-02T21:46:51.155Z,95533.41
2023-03-02T21:49:21.474Z,95532.31
2023-03-02T21:51:50.000Z,95528.97
2023-03-02T21:54:17.739Z,95531.78
2023-03-02T21:56:45.560Z,95515.28
2023-03-02T21:59:13.256Z,95535.53
2023-03-02T22:01:41.001Z,95524.53
2023-03-02T22:04:08.689Z,95530.56
2023-03-02T22:06:37.886Z,95535.63
2023-03-02T22:09:05.579Z,95539.06
2023-03-02T22:11:38.104Z,95538.16
2023-03-02T22:14:17.884Z,95536.22
2023-03-02T22:16:48.284Z,95535.69
2023-03-02T22:19:29.393Z,95539.56
2023-03-02T22:22:08.654Z,95537.06
2023-03-02T22:24:36.222Z,95540.13
2023-03-02T22:27:24.564Z,95536.66
2023-03-02T22:29:55.625Z,95549.63
2023-03-02T22:32:25.416Z,95534.66
2023-03-02T22:35:22.327Z,95547.59
2023-03-02T22:37:52.158Z,95541.50
2023-03-02T22:40:45.901Z,95559.44
2023-03-02T22:43:30.161Z,95558.88
2023-03-02T22:46:20.514Z,95549.28
2023-03-02T22:48:52.756Z,95547.47
2023-03-02T22:51:28.386Z,95556.94
2023-03-02T22:54:00.761Z,95564.63
2023-03-02T22:56:37.725Z,95564.00
2023-03-02T22:59:27.560Z,95559.72
2023-03-02T23:02:00.413Z,95558.06
2023-03-02T23:04:32.021Z,95566.22
2023-03-02T23:07:03.078Z,95561.72
2023-03-02T23:09:33.454Z,95542.91
2023-03-02T23:12:26.564Z,95568.88
2023-03-02T23:15:20.959Z,95588.66
2023-03-02T23:17:48.724Z,95579.41
2023-03-02T23:20:16.686Z,95583.81
2023-03-02T23:22:44.848Z,95579.59
2023-03-02T23:25:14.644Z,95582.72
2023-03-02T23:27:42.366Z,95589.97
2023-03-02T23:30:10.384Z,95581.81
2023-03-02T23:32:38.129Z,95591.34
2023-03-02T23:35:06.130Z,95587.84
2023-03-02T23:37:33.879Z,95601.16
2023-03-02T23:40:01.450Z,95600.38
2023-03-02T23:42:30.364Z,95607.09
2023-03-02T23:44:57.850Z,95610.91
2023-03-02T23:47:25.555Z,95600.31
2023-03-02T23:49:53.216Z,95611.63
2023-03-02T23:52:20.759Z,95611.19
2023-03-02T23:54:48.402Z,95615.34
2023-03-02T23:57:16.491Z,95627.22
2023-03-02T23:59:44.134Z,95612.00
